sensor_id;sensor_type;location;lat;lon;timestamp;temperature;humidity
14737;DHT22;7459;53.590;10.062;2023-05-16T00:01:50;12.30;99.90
14737;DHT22;7459;53.590;10.062;2023-05-16T00:04:16;12.20;99.90
14737;DHT22;7459;53.590;10.062;2023-05-16T00:06:42;12.20;99.90
14737;DHT22;7459;53.590;10.062;2023-05-16T00:09:08;12.20;99.90
14737;DHT22;7459;53.590;10.062;2023-05-16T00:11:33;12.30;99.90
14737;DHT22;7459;53.590;10.062;2023-05-16T00:13:59;12.30;99.90
14737;DHT22;7459;53.590;10.062;2023-05-16T00:16:25;12.40;99.90
14737;DHT22;7459;53.590;10.062;2023-05-16T00:18:53;12.40;99.90
14737;DHT22;7459;53.590;10.062;2023-05-16T00:21:21;12.40;99.90
14737;DHT22;7459;53.590;10.062;2023-05-16T00:23:46;12.40;99.90
14737;DHT22;7459;53.590;10.062;2023-05-16T00:26:12;12.40;99.90
14737;DHT22;7459;53.590;10.062;2023-05-16T00:28:38;12.40;99.90
14737;DHT22;7459;53.590;10.062;2023-05-16T00:31:03;12.40;99.90
14737;DHT22;7459;53.590;10.062;2023-05-16T00:33:29;12.40;99.90
14737;DHT22;7459;53.590;10.062;2023-05-16T00:35:55;12.40;99.90
14737;DHT22;7459;53.590;10.062;2023-05-16T00:38:21;12.30;99.90
14737;DHT22;7459;53.590;10.062;2023-05-16T00:40:47;12.30;99.90
14737;DHT22;7459;53.590;10.062;2023-05-16T00:43:12;12.30;99.90
14737;DHT22;7459;53.590;10.062;2023-05-16T00:45:38;12.40;99.90
14737;DHT22;7459;53.590;10.062;2023-05-16T00:48:04;12.40;99.90
14737;DHT22;7459;53.590;10.062;2023-05-16T00:50:31;12.50;99.90
14737;DHT22;7459;53.590;10.062;2023-05-16T00:52:57;12.50;99.90
14737;DHT22;7459;53.590;10.062;2023-05-16T00:55:23;12.50;99.90
14737;DHT22;7459;53.590;10.062;2023-05-16T00:57:49;12.50;99.90
14737;DHT22;7459;53.590;10.062;2023-05-16T01:00:16;12.50;99.90
14737;DHT22;7459;53.590;10.062;2023-05-16T01:02:45;12.50;99.90
14737;DHT22;7459;53.590;10.062;2023-05-16T01:05:11;12.50;99.90
14737;DHT22;7459;53.590;10.062;2023-05-16T01:07:37;12.50;99.90
14737;DHT22;7459;53.590;10.062;2023-05-16T01:10:03;12.40;99.90
14737;DHT22;7459;53.590;10.062;2023-05-16T01:15:43;12.30;99.90
14737;DHT22;7459;53.590;10.062;2023-05-16T01:18:33;12.40;99.90
14737;DHT22;7459;53.590;10.062;2023-05-16T01:21:15;12.40;99.90
14737;DHT22;7459;53.590;10.062;2023-05-16T01:27:06;12.40;99.90
14737;DHT22;7459;53.590;10.062;2023-05-16T01:29:32;12.40;99.90
14737;DHT22;7459;53.590;10.062;2023-05-16T01:31:58;12.40;99.90
14737;DHT22;7459;53.590;10.062;2023-05-16T01:34:24;12.40;99.90
14737;DHT22;7459;53.590;10.062;2023-05-16T01:39:53;12.30;99.90
14737;DHT22;7459;53.590;10.062;2023-05-16T01:42:36;12.20;99.90
14737;DHT22;7459;53.590;10.062;2023-05-16T01:45:25;12.20;99.90
14737;DHT22;7459;53.590;10.062;2023-05-16T01:48:06;12.30;99.90
14737;DHT22;7459;53.590;10.062;2023-05-16T01:50:35;12.30;99.90
14737;DHT22;7459;53.590;10.062;2023-05-16T01:53:11;12.20;99.90
14737;DHT22;7459;53.590;10.062;2023-05-16T01:55:47;12.20;99.90
14737;DHT22;7459;53.590;10.062;2023-05-16T01:58:19;12.10;99.90
14737;DHT22;7459;53.590;10.062;2023-05-16T02:00:46;12.10;99.90
14737;DHT22;7459;53.590;10.062;2023-05-16T02:03:11;12.10;99.90
14737;DHT22;7459;53.590;10.062;2023-05-16T02:05:37;12.10;99.90
14737;DHT22;7459;53.590;10.062;2023-05-16T02:08:03;12.10;99.90
14737;DHT22;7459;53.590;10.062;2023-05-16T02:10:29;12.10;99.90
14737;DHT22;7459;53.590;10.062;2023-05-16T02:12:56;12.10;99.90
14737;DHT22;7459;53.590;10.062;2023-05-16T02:15:22;12.10;99.90
14737;DHT22;7459;53.590;10.062;2023-05-16T02:17:47;12.00;99.90
14737;DHT22;7459;53.590;10.062;2023-05-16T02:20:13;12.00;99.90
14737;DHT22;7459;53.590;10.062;2023-05-16T02:22:39;12.00;99.90
14737;DHT22;7459;53.590;10.062;2023-05-16T02:25:07;12.10;99.90
14737;DHT22;7459;53.590;10.062;2023-05-16T02:27:33;12.20;99.90
14737;DHT22;7459;53.590;10.062;2023-05-16T02:29:58;12.20;99.90
14737;DHT22;7459;53.590;10.062;2023-05-16T02:32:24;12.10;99.90
14737;DHT22;7459;53.590;10.062;2023-05-16T02:34:50;12.00;99.90
14737;DHT22;7459;53.590;10.062;2023-05-16T02:37:16;11.90;99.90
14737;DHT22;7459;53.590;10.062;2023-05-16T02:39:41;11.80;99.90
14737;DHT22;7459;53.590;10.062;2023-05-16T02:42:07;11.70;99.90
14737;DHT22;7459;53.590;10.062;2023-05-16T02:44:33;11.70;99.90
14737;DHT22;7459;53.590;10.062;2023-05-16T02:46:59;11.70;99.90
14737;DHT22;7459;53.590;10.062;2023-05-16T02:49:24;11.70;99.90
14737;DHT22;7459;53.590;10.062;2023-05-16T02:51:50;11.70;99.90
14737;DHT22;7459;53.590;10.062;2023-05-16T02:54:16;11.80;99.90
14737;DHT22;7459;53.590;10.062;2023-05-16T02:56:42;11.80;99.90
14737;DHT22;7459;53.590;10.062;2023-05-16T02:59:09;11.80;99.90
14737;DHT22;7459;53.590;10.062;2023-05-16T03:01:35;11.80;99.90
14737;DHT22;7459;53.590;10.062;2023-05-16T03:04:01;11.80;99.90
14737;DHT22;7459;53.590;10.062;2023-05-16T03:06:27;11.80;99.90
14737;DHT22;7459;53.590;10.062;2023-05-16T03:08:52;11.80;99.90
14737;DHT22;7459;53.590;10.062;2023-05-16T03:11:18;11.80;99.90
14737;DHT22;7459;53.590;10.062;2023-05-16T03:13:48;11.80;99.90
14737;DHT22;7459;53.590;10.062;2023-05-16T03:16:14;11.80;99.90
14737;DHT22;7459;53.590;10.062;2023-05-16T03:18:41;11.80;99.90
14737;DHT22;7459;53.590;10.062;2023-05-16T03:21:06;11.80;99.90
14737;DHT22;7459;53.590;10.062;2023-05-16T03:23:32;11.80;99.90
14737;DHT22;7459;53.590;10.062;2023-05-16T03:25:58;11.70;99.90
14737;DHT22;7459;53.590;10.062;2023-05-16T03:28:25;11.70;99.90
14737;DHT22;7459;53.590;10.062;2023-05-16T03:30:51;11.60;99.90
14737;DHT22;7459;53.590;10.062;2023-05-16T03:33:16;11.60;99.90
14737;DHT22;7459;53.590;10.062;2023-05-16T03:35:43;11.70;99.90
14737;DHT22;7459;53.590;10.062;2023-05-16T03:38:09;11.70;99.90
14737;DHT22;7459;53.590;10.062;2023-05-16T03:40:35;11.60;99.90
14737;DHT22;7459;53.590;10.062;2023-05-16T03:43:01;11.60;99.90
14737;DHT22;7459;53.590;10.062;2023-05-16T03:45:29;11.50;99.90
14737;DHT22;7459;53.590;10.062;2023-05-16T03:47:55;11.50;99.90
14737;DHT22;7459;53.590;10.062;2023-05-16T03:50:21;11.50;99.90
14737;DHT22;7459;53.590;10.062;2023-05-16T03:52:47;11.40;99.90
14737;DHT22;7459;53.590;10.062;2023-05-16T03:55:12;11.40;99.90
14737;DHT22;7459;53.590;10.062;2023-05-16T03:57:40;11.50;99.90
14737;DHT22;7459;53.590;10.062;2023-05-16T04:00:09;11.50;99.90
14737;DHT22;7459;53.590;10.062;2023-05-16T04:02:39;11.40;99.90
14737;DHT22;7459;53.590;10.062;2023-05-16T04:05:08;11.40;99.90
14737;DHT22;7459;53.590;10.062;2023-05-16T04:07:35;11.50;99.90
14737;DHT22;7459;53.590;10.062;2023-05-16T04:10:02;11.60;99.90
14737;DHT22;7459;53.590;10.062;2023-05-16T04:12:28;11.60;99.90
14737;DHT22;7459;53.590;10.062;2023-05-16T04:14:54;11.60;99.90
14737;DHT22;7459;53.590;10.062;2023-05-16T04:17:20;11.60;99.90
14737;DHT22;7459;53.590;10.062;2023-05-16T04:19:45;11.60;99.90
14737;DHT22;7459;53.590;10.062;2023-05-16T04:22:11;11.60;99.90
14737;DHT22;7459;53.590;10.062;2023-05-16T04:24:37;11.60;99.90
14737;DHT22;7459;53.590;10.062;2023-05-16T04:27:03;11.50;99.90
14737;DHT22;7459;53.590;10.062;2023-05-16T04:29:29;11.40;99.90
14737;DHT22;7459;53.590;10.062;2023-05-16T04:31:56;11.40;99.90
14737;DHT22;7459;53.590;10.062;2023-05-16T04:34:21;11.40;99.90
14737;DHT22;7459;53.590;10.062;2023-05-16T04:36:52;11.40;99.90
14737;DHT22;7459;53.590;10.062;2023-05-16T04:39:18;11.40;99.90
14737;DHT22;7459;53.590;10.062;2023-05-16T04:41:44;11.40;99.90
14737;DHT22;7459;53.590;10.062;2023-05-16T04:44:09;11.40;99.90
14737;DHT22;7459;53.590;10.062;2023-05-16T04:46:35;11.40;99.90
14737;DHT22;7459;53.590;10.062;2023-05-16T04:49:01;11.30;99.90
14737;DHT22;7459;53.590;10.062;2023-05-16T04:51:27;11.30;99.90
14737;DHT22;7459;53.590;10.062;2023-05-16T04:53:53;11.30;99.90
14737;DHT22;7459;53.590;10.062;2023-05-16T04:56:19;11.30;99.90
14737;DHT22;7459;53.590;10.062;2023-05-16T04:58:45;11.20;99.90
14737;DHT22;7459;53.590;10.062;2023-05-16T05:01:11;11.20;99.90
14737;DHT22;7459;53.590;10.062;2023-05-16T05:03:37;11.20;99.90
14737;DHT22;7459;53.590;10.062;2023-05-16T05:06:03;11.20;99.90
14737;DHT22;7459;53.590;10.062;2023-05-16T05:08:28;11.20;99.90
14737;DHT22;7459;53.590;10.062;2023-05-16T05:10:55;11.10;99.90
14737;DHT22;7459;53.590;10.062;2023-05-16T05:13:21;11.10;99.90
14737;DHT22;7459;53.590;10.062;2023-05-16T05:15:47;11.10;99.90
14737;DHT22;7459;53.590;10.062;2023-05-16T05:18:14;11.10;99.90
14737;DHT22;7459;53.590;10.062;2023-05-16T05:20:40;11.10;99.90
14737;DHT22;7459;53.590;10.062;2023-05-16T05:23:06;11.10;99.90
14737;DHT22;7459;53.590;10.062;2023-05-16T05:25:32;11.10;99.90
14737;DHT22;7459;53.590;10.062;2023-05-16T05:28:00;11.10;99.90
14737;DHT22;7459;53.590;10.062;2023-05-16T05:30:25;11.10;99.90
14737;DHT22;7459;53.590;10.062;2023-05-16T05:32:51;11.10;99.90
14737;DHT22;7459;53.590;10.062;2023-05-16T05:35:18;11.20;99.90
14737;DHT22;7459;53.590;10.062;2023-05-16T05:37:43;11.20;99.90
14737;DHT22;7459;53.590;10.062;2023-05-16T05:40:09;11.20;99.90
14737;DHT22;7459;53.590;10.062;2023-05-16T05:42:35;11.20;99.90
14737;DHT22;7459;53.590;10.062;2023-05-16T05:45:01;11.30;99.90
14737;DHT22;7459;53.590;10.062;2023-05-16T05:47:27;11.30;99.90
14737;DHT22;7459;53.590;10.062;2023-05-16T05:49:52;11.30;99.90
14737;DHT22;7459;53.590;10.062;2023-05-16T05:52:18;11.30;99.90
14737;DHT22;7459;53.590;10.062;2023-05-16T05:54:44;11.30;99.90
14737;DHT22;7459;53.590;10.062;2023-05-16T05:57:10;11.30;99.90
14737;DHT22;7459;53.590;10.062;2023-05-16T05:59:35;11.20;99.90
14737;DHT22;7459;53.590;10.062;2023-05-16T06:02:01;11.30;99.90
14737;DHT22;7459;53.590;10.062;2023-05-16T06:04:27;11.40;99.90
14737;DHT22;7459;53.590;10.062;2023-05-16T06:06:52;11.40;99.90
14737;DHT22;7459;53.590;10.062;2023-05-16T06:09:19;11.40;99.90
14737;DHT22;7459;53.590;10.062;2023-05-16T06:11:45;11.40;99.90
14737;DHT22;7459;53.590;10.062;2023-05-16T06:14:12;11.40;99.90
14737;DHT22;7459;53.590;10.062;2023-05-16T06:16:38;11.30;99.90
14737;DHT22;7459;53.590;10.062;2023-05-16T06:19:04;11.30;99.90
14737;DHT22;7459;53.590;10.062;2023-05-16T06:21:30;11.30;99.90
14737;DHT22;7459;53.590;10.062;2023-05-16T06:23:56;11.40;99.90
14737;DHT22;7459;53.590;10.062;2023-05-16T06:26:22;11.40;99.90
14737;DHT22;7459;53.590;10.062;2023-05-16T06:28:48;11.40;99.90
14737;DHT22;7459;53.590;10.062;2023-05-16T06:31:14;11.40;99.90
14737;DHT22;7459;53.590;10.062;2023-05-16T06:33:40;11.40;99.90
14737;DHT22;7459;53.590;10.062;2023-05-16T06:36:06;11.50;99.90
14737;DHT22;7459;53.590;10.062;2023-05-16T06:38:32;11.60;99.90
14737;DHT22;7459;53.590;10.062;2023-05-16T06:40:57;11.60;99.90
14737;DHT22;7459;53.590;10.062;2023-05-16T06:43:23;11.60;99.90
14737;DHT22;7459;53.590;10.062;2023-05-16T06:45:49;11.60;99.90
14737;DHT22;7459;53.590;10.062;2023-05-16T06:48:17;11.60;99.90
14737;DHT22;7459;53.590;10.062;2023-05-16T06:50:47;11.60;99.90
14737;DHT22;7459;53.590;10.062;2023-05-16T06:53:13;11.60;99.90
14737;DHT22;7459;53.590;10.062;2023-05-16T06:55:39;11.60;99.90
14737;DHT22;7459;53.590;10.062;2023-05-16T06:58:05;11.70;99.90
14737;DHT22;7459;53.590;10.062;2023-05-16T07:00:31;11.70;99.90
14737;DHT22;7459;53.590;10.062;2023-05-16T07:02:56;11.70;99.90
14737;DHT22;7459;53.590;10.062;2023-05-16T07:05:22;11.60;99.90
14737;DHT22;7459;53.590;10.062;2023-05-16T07:07:48;11.60;99.90
14737;DHT22;7459;53.590;10.062;2023-05-16T07:10:14;11.70;99.90
14737;DHT22;7459;53.590;10.062;2023-05-16T07:12:41;11.70;99.90
14737;DHT22;7459;53.590;10.062;2023-05-16T07:15:07;11.80;99.90
14737;DHT22;7459;53.590;10.062;2023-05-16T07:17:33;11.80;99.90
14737;DHT22;7459;53.590;10.062;2023-05-16T07:19:59;11.70;99.90
14737;DHT22;7459;53.590;10.062;2023-05-16T07:22:25;11.70;99.90
14737;DHT22;7459;53.590;10.062;2023-05-16T07:24:51;11.70;99.90
14737;DHT22;7459;53.590;10.062;2023-05-16T07:27:18;11.70;99.90
14737;DHT22;7459;53.590;10.062;2023-05-16T07:29:44;11.60;99.90
14737;DHT22;7459;53.590;10.062;2023-05-16T07:32:10;11.60;99.90
14737;DHT22;7459;53.590;10.062;2023-05-16T07:34:35;11.70;99.90
14737;DHT22;7459;53.590;10.062;2023-05-16T07:37:01;11.70;99.90
14737;DHT22;7459;53.590;10.062;2023-05-16T07:39:27;11.70;99.90
14737;DHT22;7459;53.590;10.062;2023-05-16T07:41:53;11.70;99.90
14737;DHT22;7459;53.590;10.062;2023-05-16T07:44:19;11.70;99.90
14737;DHT22;7459;53.590;10.062;2023-05-16T07:46:44;11.80;99.90
14737;DHT22;7459;53.590;10.062;2023-05-16T07:49:10;11.90;99.90
14737;DHT22;7459;53.590;10.062;2023-05-16T07:51:36;11.90;99.90
14737;DHT22;7459;53.590;10.062;2023-05-16T07:54:01;12.00;99.90
14737;DHT22;7459;53.590;10.062;2023-05-16T07:56:27;12.00;99.90
14737;DHT22;7459;53.590;10.062;2023-05-16T07:58:53;12.10;99.90
14737;DHT22;7459;53.590;10.062;2023-05-16T08:01:19;12.20;99.90
14737;DHT22;7459;53.590;10.062;2023-05-16T08:03:45;12.20;99.90
14737;DHT22;7459;53.590;10.062;2023-05-16T08:06:10;12.20;99.90
14737;DHT22;7459;53.590;10.062;2023-05-16T08:08:36;12.20;99.90
14737;DHT22;7459;53.590;10.062;2023-05-16T08:11:02;12.20;99.90
14737;DHT22;7459;53.590;10.062;2023-05-16T08:13:29;12.20;99.90
14737;DHT22;7459;53.590;10.062;2023-05-16T08:15:56;12.20;99.90
14737;DHT22;7459;53.590;10.062;2023-05-16T08:18:21;12.30;99.90
14737;DHT22;7459;53.590;10.062;2023-05-16T08:20:47;12.30;99.90
14737;DHT22;7459;53.590;10.062;2023-05-16T08:23:13;12.30;99.90
14737;DHT22;7459;53.590;10.062;2023-05-16T08:25:39;12.30;99.90
14737;DHT22;7459;53.590;10.062;2023-05-16T08:28:05;12.30;99.90
14737;DHT22;7459;53.590;10.062;2023-05-16T08:30:30;12.30;99.90
14737;DHT22;7459;53.590;10.062;2023-05-16T08:32:56;12.20;99.90
14737;DHT22;7459;53.590;10.062;2023-05-16T08:35:22;12.20;99.90
14737;DHT22;7459;53.590;10.062;2023-05-16T08:37:48;12.00;99.90
14737;DHT22;7459;53.590;10.062;2023-05-16T08:40:13;11.90;99.90
14737;DHT22;7459;53.590;10.062;2023-05-16T08:42:40;12.00;99.90
14737;DHT22;7459;53.590;10.062;2023-05-16T08:45:06;12.00;99.90
14737;DHT22;7459;53.590;10.062;2023-05-16T08:47:33;12.20;99.90
14737;DHT22;7459;53.590;10.062;2023-05-16T08:50:02;12.30;99.90
14737;DHT22;7459;53.590;10.062;2023-05-16T08:52:30;12.40;99.90
14737;DHT22;7459;53.590;10.062;2023-05-16T08:55:01;12.40;99.90
14737;DHT22;7459;53.590;10.062;2023-05-16T08:57:32;12.40;99.90
14737;DHT22;7459;53.590;10.062;2023-05-16T08:59:59;12.50;99.90
14737;DHT22;7459;53.590;10.062;2023-05-16T09:02:26;12.50;99.90
14737;DHT22;7459;53.590;10.062;2023-05-16T09:04:53;12.60;99.90
14737;DHT22;7459;53.590;10.062;2023-05-16T09:07:19;12.70;99.90
14737;DHT22;7459;53.590;10.062;2023-05-16T09:09:45;12.60;99.90
14737;DHT22;7459;53.590;10.062;2023-05-16T09:12:10;12.60;99.90
14737;DHT22;7459;53.590;10.062;2023-05-16T09:14:36;12.70;99.90
14737;DHT22;7459;53.590;10.062;2023-05-16T09:17:06;12.80;99.90
14737;DHT22;7459;53.590;10.062;2023-05-16T09:19:39;12.80;99.90
14737;DHT22;7459;53.590;10.062;2023-05-16T09:22:10;12.80;99.90
14737;DHT22;7459;53.590;10.062;2023-05-16T09:24:38;12.70;99.90
14737;DHT22;7459;53.590;10.062;2023-05-16T09:27:13;12.70;99.90
14737;DHT22;7459;53.590;10.062;2023-05-16T09:29:41;12.70;99.90
14737;DHT22;7459;53.590;10.062;2023-05-16T09:32:12;12.70;99.90
14737;DHT22;7459;53.590;10.062;2023-05-16T09:34:46;12.80;99.90
14737;DHT22;7459;53.590;10.062;2023-05-16T09:37:17;12.70;99.90
14737;DHT22;7459;53.590;10.062;2023-05-16T09:39:49;12.60;99.90
14737;DHT22;7459;53.590;10.062;2023-05-16T09:42:17;12.40;99.90
14737;DHT22;7459;53.590;10.062;2023-05-16T09:44:51;12.50;99.90
14737;DHT22;7459;53.590;10.062;2023-05-16T09:47:19;12.60;99.90
14737;DHT22;7459;53.590;10.062;2023-05-16T09:49:46;12.70;99.90
14737;DHT22;7459;53.590;10.062;2023-05-16T09:52:18;12.80;99.90
14737;DHT22;7459;53.590;10.062;2023-05-16T09:54:45;12.90;99.90
14737;DHT22;7459;53.590;10.062;2023-05-16T09:57:20;12.90;99.90
14737;DHT22;7459;53.590;10.062;2023-05-16T09:59:47;13.00;99.90
14737;DHT22;7459;53.590;10.062;2023-05-16T10:02:14;13.00;99.90
14737;DHT22;7459;53.590;10.062;2023-05-16T10:04:41;12.90;99.90
14737;DHT22;7459;53.590;10.062;2023-05-16T10:07:07;12.90;99.90
14737;DHT22;7459;53.590;10.062;2023-05-16T10:09:35;12.80;99.90
14737;DHT22;7459;53.590;10.062;2023-05-16T10:12:02;12.80;99.90
14737;DHT22;7459;53.590;10.062;2023-05-16T10:14:33;12.70;99.90
14737;DHT22;7459;53.590;10.062;2023-05-16T10:17:02;12.60;99.90
14737;DHT22;7459;53.590;10.062;2023-05-16T10:19:31;12.70;99.90
14737;DHT22;7459;53.590;10.062;2023-05-16T10:21:59;12.70;99.90
14737;DHT22;7459;53.590;10.062;2023-05-16T10:24:49;12.80;99.90
14737;DHT22;7459;53.590;10.062;2023-05-16T10:27:17;12.70;99.90
14737;DHT22;7459;53.590;10.062;2023-05-16T10:29:44;12.80;99.90
14737;DHT22;7459;53.590;10.062;2023-05-16T10:32:11;12.80;99.90
14737;DHT22;7459;53.590;10.062;2023-05-16T10:34:38;12.80;99.90
14737;DHT22;7459;53.590;10.062;2023-05-16T10:37:05;12.80;99.90
14737;DHT22;7459;53.590;10.062;2023-05-16T10:39:32;12.80;99.90
14737;DHT22;7459;53.590;10.062;2023-05-16T10:41:58;12.80;99.90
14737;DHT22;7459;53.590;10.062;2023-05-16T10:44:24;12.80;99.90
14737;DHT22;7459;53.590;10.062;2023-05-16T10:46:50;12.80;99.90
14737;DHT22;7459;53.590;10.062;2023-05-16T10:49:23;12.80;99.90
14737;DHT22;7459;53.590;10.062;2023-05-16T10:54:42;12.80;99.90
14737;DHT22;7459;53.590;10.062;2023-05-16T10:57:11;12.80;99.90
14737;DHT22;7459;53.590;10.062;2023-05-16T10:59:43;12.90;99.50
14737;DHT22;7459;53.590;10.062;2023-05-16T11:02:25;12.70;99.80
14737;DHT22;7459;53.590;10.062;2023-05-16T11:04:55;12.70;99.90
14737;DHT22;7459;53.590;10.062;2023-05-16T11:07:25;12.60;99.90
14737;DHT22;7459;53.590;10.062;2023-05-16T11:12:47;12.50;99.90
14737;DHT22;7459;53.590;10.062;2023-05-16T11:15:25;12.50;99.90
14737;DHT22;7459;53.590;10.062;2023-05-16T11:18:06;12.40;99.90
14737;DHT22;7459;53.590;10.062;2023-05-16T11:20:35;12.30;99.90
14737;DHT22;7459;53.590;10.062;2023-05-16T11:23:21;12.20;99.90
14737;DHT22;7459;53.590;10.062;2023-05-16T11:25:52;12.10;99.90
14737;DHT22;7459;53.590;10.062;2023-05-16T11:28:23;12.10;99.90
14737;DHT22;7459;53.590;10.062;2023-05-16T11:30:51;12.10;99.90
14737;DHT22;7459;53.590;10.062;2023-05-16T11:33:21;12.00;99.90
14737;DHT22;7459;53.590;10.062;2023-05-16T11:36:08;12.10;99.90
14737;DHT22;7459;53.590;10.062;2023-05-16T11:38:34;12.20;99.90
14737;DHT22;7459;53.590;10.062;2023-05-16T11:41:04;12.40;99.90
14737;DHT22;7459;53.590;10.062;2023-05-16T11:43:40;12.60;99.90
14737;DHT22;7459;53.590;10.062;2023-05-16T11:46:10;12.80;99.90
14737;DHT22;7459;53.590;10.062;2023-05-16T11:48:39;12.90;99.90
14737;DHT22;7459;53.590;10.062;2023-05-16T11:51:05;13.00;99.90
14737;DHT22;7459;53.590;10.062;2023-05-16T11:53:31;13.10;99.90
14737;DHT22;7459;53.590;10.062;2023-05-16T11:55:58;13.10;99.90
14737;DHT22;7459;53.590;10.062;2023-05-16T11:58:26;13.10;99.90
14737;DHT22;7459;53.590;10.062;2023-05-16T12:00:52;13.10;99.90
14737;DHT22;7459;53.590;10.062;2023-05-16T12:03:18;13.00;99.90
14737;DHT22;7459;53.590;10.062;2023-05-16T12:05:55;12.90;99.90
14737;DHT22;7459;53.590;10.062;2023-05-16T12:08:25;12.90;99.90
14737;DHT22;7459;53.590;10.062;2023-05-16T12:10:52;12.90;99.90
14737;DHT22;7459;53.590;10.062;2023-05-16T12:13:19;13.00;99.90
14737;DHT22;7459;53.590;10.062;2023-05-16T12:15:47;13.10;99.90
14737;DHT22;7459;53.590;10.062;2023-05-16T12:18:13;13.00;99.90
14737;DHT22;7459;53.590;10.062;2023-05-16T12:20:40;13.00;99.90
14737;DHT22;7459;53.590;10.062;2023-05-16T12:23:10;13.10;99.90
14737;DHT22;7459;53.590;10.062;2023-05-16T12:25:37;13.10;99.90
14737;DHT22;7459;53.590;10.062;2023-05-16T12:28:11;13.20;99.90
14737;DHT22;7459;53.590;10.062;2023-05-16T12:30:41;13.10;99.90
14737;DHT22;7459;53.590;10.062;2023-05-16T12:35:38;13.20;99.90
14737;DHT22;7459;53.590;10.062;2023-05-16T12:38:07;13.20;99.90
14737;DHT22;7459;53.590;10.062;2023-05-16T12:40:36;13.00;99.90
14737;DHT22;7459;53.590;10.062;2023-05-16T12:43:02;13.10;99.90
14737;DHT22;7459;53.590;10.062;2023-05-16T12:45:28;13.20;99.90
14737;DHT22;7459;53.590;10.062;2023-05-16T12:50:20;13.20;99.90
14737;DHT22;7459;53.590;10.062;2023-05-16T12:52:52;13.20;99.90
14737;DHT22;7459;53.590;10.062;2023-05-16T12:55:21;13.10;99.90
14737;DHT22;7459;53.590;10.062;2023-05-16T12:57:48;13.10;99.90
14737;DHT22;7459;53.590;10.062;2023-05-16T13:02:44;13.00;99.90
14737;DHT22;7459;53.590;10.062;2023-05-16T13:07:37;12.90;99.90
14737;DHT22;7459;53.590;10.062;2023-05-16T13:10:09;12.80;99.90
14737;DHT22;7459;53.590;10.062;2023-05-16T13:12:39;12.40;99.90
14737;DHT22;7459;53.590;10.062;2023-05-16T13:15:06;12.20;99.90
14737;DHT22;7459;53.590;10.062;2023-05-16T13:17:36;12.10;99.90
14737;DHT22;7459;53.590;10.062;2023-05-16T13:20:04;12.00;99.90
14737;DHT22;7459;53.590;10.062;2023-05-16T13:22:35;12.10;99.90
14737;DHT22;7459;53.590;10.062;2023-05-16T13:25:01;12.10;99.90
14737;DHT22;7459;53.590;10.062;2023-05-16T13:27:29;12.20;99.90
14737;DHT22;7459;53.590;10.062;2023-05-16T13:29:55;12.20;99.90
14737;DHT22;7459;53.590;10.062;2023-05-16T13:32:21;12.30;99.90
14737;DHT22;7459;53.590;10.062;2023-05-16T13:34:46;12.40;99.90
14737;DHT22;7459;53.590;10.062;2023-05-16T13:37:12;12.30;99.90
14737;DHT22;7459;53.590;10.062;2023-05-16T13:39:38;12.20;99.90
14737;DHT22;7459;53.590;10.062;2023-05-16T13:42:04;12.10;99.90
14737;DHT22;7459;53.590;10.062;2023-05-16T13:44:29;12.30;99.90
14737;DHT22;7459;53.590;10.062;2023-05-16T13:46:55;12.40;99.90
14737;DHT22;7459;53.590;10.062;2023-05-16T13:49:22;12.40;99.90
14737;DHT22;7459;53.590;10.062;2023-05-16T13:51:48;12.30;99.90
14737;DHT22;7459;53.590;10.062;2023-05-16T13:54:13;12.30;99.90
14737;DHT22;7459;53.590;10.062;2023-05-16T13:56:39;12.30;99.90
14737;DHT22;7459;53.590;10.062;2023-05-16T13:59:05;12.40;99.90
14737;DHT22;7459;53.590;10.062;2023-05-16T14:01:31;12.30;99.90
14737;DHT22;7459;53.590;10.062;2023-05-16T14:03:56;12.30;99.90
14737;DHT22;7459;53.590;10.062;2023-05-16T14:06:22;12.30;99.90
14737;DHT22;7459;53.590;10.062;2023-05-16T14:08:48;12.30;99.90
14737;DHT22;7459;53.590;10.062;2023-05-16T14:11:14;12.30;99.90
14737;DHT22;7459;53.590;10.062;2023-05-16T14:13:39;12.30;99.90
14737;DHT22;7459;53.590;10.062;2023-05-16T14:16:05;12.40;99.90
14737;DHT22;7459;53.590;10.062;2023-05-16T14:18:34;12.40;99.90
14737;DHT22;7459;53.590;10.062;2023-05-16T14:21:03;12.40;99.90
14737;DHT22;7459;53.590;10.062;2023-05-16T14:23:29;12.40;99.90
14737;DHT22;7459;53.590;10.062;2023-05-16T14:25:54;12.40;99.90
14737;DHT22;7459;53.590;10.062;2023-05-16T14:28:20;12.50;99.90
14737;DHT22;7459;53.590;10.062;2023-05-16T14:30:46;12.40;99.90
14737;DHT22;7459;53.590;10.062;2023-05-16T14:33:11;12.60;99.90
14737;DHT22;7459;53.590;10.062;2023-05-16T14:35:38;12.60;99.90
14737;DHT22;7459;53.590;10.062;2023-05-16T14:38:05;12.60;99.90
14737;DHT22;7459;53.590;10.062;2023-05-16T14:40:32;12.70;99.90
14737;DHT22;7459;53.590;10.062;2023-05-16T14:42:58;12.70;99.90
14737;DHT22;7459;53.590;10.062;2023-05-16T14:45:24;12.70;99.90
14737;DHT22;7459;53.590;10.062;2023-05-16T14:47:50;12.70;99.90
14737;DHT22;7459;53.590;10.062;2023-05-16T14:50:16;12.80;99.90
14737;DHT22;7459;53.590;10.062;2023-05-16T14:52:42;12.90;99.90
14737;DHT22;7459;53.590;10.062;2023-05-16T14:55:09;12.90;99.90
14737;DHT22;7459;53.590;10.062;2023-05-16T14:57:35;12.90;99.90
14737;DHT22;7459;53.590;10.062;2023-05-16T15:00:01;12.90;99.90
14737;DHT22;7459;53.590;10.062;2023-05-16T15:02:26;12.90;99.90
14737;DHT22;7459;53.590;10.062;2023-05-16T15:04:52;12.90;99.90
14737;DHT22;7459;53.590;10.062;2023-05-16T15:07:18;12.60;99.90
14737;DHT22;7459;53.590;10.062;2023-05-16T15:09:45;14.00;99.90
14737;DHT22;7459;53.590;10.062;2023-05-16T15:12:10;12.50;99.90
14737;DHT22;7459;53.590;10.062;2023-05-16T15:14:36;12.30;99.90
14737;DHT22;7459;53.590;10.062;2023-05-16T15:17:02;12.30;99.90
14737;DHT22;7459;53.590;10.062;2023-05-16T15:19:28;12.30;99.90
14737;DHT22;7459;53.590;10.062;2023-05-16T15:21:56;12.40;99.90
14737;DHT22;7459;53.590;10.062;2023-05-16T15:24:21;12.40;99.90
14737;DHT22;7459;53.590;10.062;2023-05-16T15:26:47;12.50;99.90
14737;DHT22;7459;53.590;10.062;2023-05-16T15:29:14;12.50;99.90
14737;DHT22;7459;53.590;10.062;2023-05-16T15:31:40;12.40;99.90
14737;DHT22;7459;53.590;10.062;2023-05-16T15:34:06;12.40;99.90
14737;DHT22;7459;53.590;10.062;2023-05-16T15:36:33;12.40;99.90
14737;DHT22;7459;53.590;10.062;2023-05-16T15:38:59;12.40;99.90
14737;DHT22;7459;53.590;10.062;2023-05-16T15:41:25;12.50;99.90
14737;DHT22;7459;53.590;10.062;2023-05-16T15:43:51;12.40;99.90
14737;DHT22;7459;53.590;10.062;2023-05-16T15:46:16;12.40;99.90
14737;DHT22;7459;53.590;10.062;2023-05-16T15:48:42;12.30;99.90
14737;DHT22;7459;53.590;10.062;2023-05-16T15:51:12;12.20;99.90
14737;DHT22;7459;53.590;10.062;2023-05-16T15:53:38;12.20;99.90
14737;DHT22;7459;53.590;10.062;2023-05-16T15:56:04;12.20;99.90